<?xml version="1.0" encoding="UTF-8" standalone="no" ?>
<gpx xmlns="http://www.topografix.com/GPX/1/1" xmlns:xsi="http://www.w3.org/2001/XMLSchema-instance" xsi:schemaLocation="http://www.topografix.com/GPX/1/1 http://www.topografix.com/GPX/1/1/gpx.xsd" version="1.1" creator="VisuGPX - https://www.visugpx.com">
  <metadata>
    <name>Edirne-Sarajevo</name>
  </metadata>
  <trk>
    <name><![CDATA[Tour d'Europe: étape 654]]></name>
    <extensions>
      <line xmlns="http://www.topografix.com/GPX/gpx_style/0/2">
        <color>008800</color>
        <width>4</width>
      </line>
    </extensions>
    <trkseg>
      <trkpt lat="42.13931" lon="21.72083">
        <ele>379.998736</ele>
        <time>2022-04-13T08:37:26.342Z</time>
      </trkpt>
      <trkpt lat="42.14012" lon="21.71992">
        <ele>379.468081</ele>
        <time>2022-04-13T08:38:09.297Z</time>
      </trkpt>
      <trkpt lat="42.14202" lon="21.72052">
        <ele>377.773131</ele>
        <time>2022-04-13T08:39:23.323Z</time>
      </trkpt>
      <trkpt lat="42.14289" lon="21.71783">
        <ele>379.878152</ele>
        <time>2022-04-13T08:40:42.295Z</time>
      </trkpt>
      <trkpt lat="42.14237" lon="21.72001">
        <ele>376.198044</ele>
        <time>2022-04-13T08:50:50.318Z</time>
      </trkpt>
      <trkpt lat="42.14085" lon="21.71959">
        <ele>371.520404</ele>
        <time>2022-04-13T08:52:45.355Z</time>
      </trkpt>
      <trkpt lat="42.14107" lon="21.71652">
        <ele>375.464836</ele>
        <time>2022-04-13T08:53:54.303Z</time>
      </trkpt>
      <trkpt lat="42.13934" lon="21.71516">
        <ele>374.900944</ele>
        <time>2022-04-13T08:54:54.355Z</time>
      </trkpt>
      <trkpt lat="42.13741" lon="21.71438">
        <ele>387.151772</ele>
        <time>2022-04-13T08:56:15.315Z</time>
      </trkpt>
      <trkpt lat="42.13693" lon="21.71153">
        <ele>399.425645</ele>
        <time>2022-04-13T08:57:31.348Z</time>
      </trkpt>
      <trkpt lat="42.13576" lon="21.7092">
        <ele>400.044991</ele>
        <time>2022-04-13T08:58:34.345Z</time>
      </trkpt>
      <trkpt lat="42.13506" lon="21.70658">
        <ele>411.823973</ele>
        <time>2022-04-13T08:59:46.316Z</time>
      </trkpt>
      <trkpt lat="42.13436" lon="21.70377">
        <ele>405.603362</ele>
        <time>2022-04-13T09:01:09.295Z</time>
      </trkpt>
      <trkpt lat="42.13368" lon="21.70122">
        <ele>404.228661</ele>
        <time>2022-04-13T09:02:44.308Z</time>
      </trkpt>
      <trkpt lat="42.13301" lon="21.69861">
        <ele>412.211672</ele>
        <time>2022-04-13T09:03:56.306Z</time>
      </trkpt>
      <trkpt lat="42.13235" lon="21.69593">
        <ele>425.733918</ele>
        <time>2022-04-13T09:05:39.328Z</time>
      </trkpt>
      <trkpt lat="42.13165" lon="21.69322">
        <ele>417.593485</ele>
        <time>2022-04-13T09:06:46.312Z</time>
      </trkpt>
      <trkpt lat="42.13064" lon="21.68963">
        <ele>410.274183</ele>
        <time>2022-04-13T09:07:26.318Z</time>
      </trkpt>
      <trkpt lat="42.12922" lon="21.68746">
        <ele>421.433745</ele>
        <time>2022-04-13T09:09:00.358Z</time>
      </trkpt>
      <trkpt lat="42.12758" lon="21.68602">
        <ele>428.239324</ele>
        <time>2022-04-13T09:10:45.303Z</time>
      </trkpt>
      <trkpt lat="42.1272" lon="21.68351">
        <ele>453.536811</ele>
        <time>2022-04-13T09:12:43.296Z</time>
      </trkpt>
      <trkpt lat="42.12691" lon="21.68087">
        <ele>470.185319</ele>
        <time>2022-04-13T09:14:46.314Z</time>
      </trkpt>
      <trkpt lat="42.12658" lon="21.67812">
        <ele>473.115313</ele>
        <time>2022-04-13T09:16:27.299Z</time>
      </trkpt>
      <trkpt lat="42.12624" lon="21.67545">
        <ele>467.614668</ele>
        <time>2022-04-13T09:17:47.318Z</time>
      </trkpt>
      <trkpt lat="42.12569" lon="21.67284">
        <ele>468.706132</ele>
        <time>2022-04-13T09:19:02.315Z</time>
      </trkpt>
      <trkpt lat="42.12425" lon="21.67079">
        <ele>479.959815</ele>
        <time>2022-04-13T09:20:58.304Z</time>
      </trkpt>
      <trkpt lat="42.12289" lon="21.66891">
        <ele>489.184677</ele>
        <time>2022-04-13T09:22:58.336Z</time>
      </trkpt>
      <trkpt lat="42.12142" lon="21.66721">
        <ele>497.389766</ele>
        <time>2022-04-13T09:24:52.304Z</time>
      </trkpt>
      <trkpt lat="42.12003" lon="21.66497">
        <ele>501.534146</ele>
        <time>2022-04-13T09:26:19.288Z</time>
      </trkpt>
      <trkpt lat="42.11851" lon="21.66304">
        <ele>498.17776</ele>
        <time>2022-04-13T09:27:09.318Z</time>
      </trkpt>
      <trkpt lat="42.11682" lon="21.66181">
        <ele>499.720075</ele>
        <time>2022-04-13T09:28:14.308Z</time>
      </trkpt>
      <trkpt lat="42.11582" lon="21.65924">
        <ele>508.870263</ele>
        <time>2022-04-13T09:29:23.307Z</time>
      </trkpt>
      <trkpt lat="42.11442" lon="21.65709">
        <ele>515.731901</ele>
        <time>2022-04-13T09:30:36.299Z</time>
      </trkpt>
      <trkpt lat="42.11307" lon="21.65505">
        <ele>517.38559</ele>
        <time>2022-04-13T09:31:44.352Z</time>
      </trkpt>
      <trkpt lat="42.11166" lon="21.65292">
        <ele>516.281733</ele>
        <time>2022-04-13T09:32:49.296Z</time>
      </trkpt>
      <trkpt lat="42.1103" lon="21.65092">
        <ele>518.809526</ele>
        <time>2022-04-13T09:34:07.310Z</time>
      </trkpt>
      <trkpt lat="42.10888" lon="21.64893">
        <ele>521.739842</ele>
        <time>2022-04-13T09:35:25.305Z</time>
      </trkpt>
      <trkpt lat="42.10733" lon="21.64677">
        <ele>525.511361</ele>
        <time>2022-04-13T09:36:44.308Z</time>
      </trkpt>
      <trkpt lat="42.10605" lon="21.64437">
        <ele>527.773991</ele>
        <time>2022-04-13T09:37:44.307Z</time>
      </trkpt>
      <trkpt lat="42.10471" lon="21.64207">
        <ele>526.593562</ele>
        <time>2022-04-13T09:38:44.306Z</time>
      </trkpt>
      <trkpt lat="42.10314" lon="21.64014">
        <ele>526.796359</ele>
        <time>2022-04-13T09:39:52.298Z</time>
      </trkpt>
      <trkpt lat="42.10149" lon="21.63846">
        <ele>527.66487</ele>
        <time>2022-04-13T09:41:01.321Z</time>
      </trkpt>
      <trkpt lat="42.09977" lon="21.63694">
        <ele>531.307578</ele>
        <time>2022-04-13T09:42:08.317Z</time>
      </trkpt>
      <trkpt lat="42.09804" lon="21.63543">
        <ele>538.282669</ele>
        <time>2022-04-13T09:43:20.304Z</time>
      </trkpt>
      <trkpt lat="42.0961" lon="21.63429">
        <ele>543.508801</ele>
        <time>2022-04-13T09:44:44.307Z</time>
      </trkpt>
      <trkpt lat="42.09406" lon="21.63348">
        <ele>541.782741</ele>
        <time>2022-04-13T09:45:51.308Z</time>
      </trkpt>
      <trkpt lat="42.0925" lon="21.63133">
        <ele>545.946883</ele>
        <time>2022-04-13T09:46:48.299Z</time>
      </trkpt>
      <trkpt lat="42.09027" lon="21.63013">
        <ele>544.532212</ele>
        <time>2022-04-13T09:47:54.324Z</time>
      </trkpt>
      <trkpt lat="42.08887" lon="21.628">
        <ele>554.928989</ele>
        <time>2022-04-13T09:48:59.287Z</time>
      </trkpt>
      <trkpt lat="42.08788" lon="21.62571">
        <ele>562.710631</ele>
        <time>2022-04-13T09:50:27.277Z</time>
      </trkpt>
      <trkpt lat="42.08717" lon="21.62278">
        <ele>562.639432</ele>
        <time>2022-04-13T09:51:48.285Z</time>
      </trkpt>
      <trkpt lat="42.08652" lon="21.62012">
        <ele>563.970258</ele>
        <time>2022-04-13T09:53:08.283Z</time>
      </trkpt>
      <trkpt lat="42.08591" lon="21.61748">
        <ele>567.177285</ele>
        <time>2022-04-13T09:54:28.274Z</time>
      </trkpt>
      <trkpt lat="42.08523" lon="21.61458">
        <ele>570.078647</ele>
        <time>2022-04-13T09:55:51.288Z</time>
      </trkpt>
      <trkpt lat="42.08459" lon="21.61191">
        <ele>573.966333</ele>
        <time>2022-04-13T09:57:11.289Z</time>
      </trkpt>
      <trkpt lat="42.08398" lon="21.60931">
        <ele>578.765764</ele>
        <time>2022-04-13T09:58:31.274Z</time>
      </trkpt>
      <trkpt lat="42.08329" lon="21.60644">
        <ele>585.517428</ele>
        <time>2022-04-13T09:59:56.305Z</time>
      </trkpt>
      <trkpt lat="42.08266" lon="21.60376">
        <ele>588.546461</ele>
        <time>2022-04-13T10:01:16.316Z</time>
      </trkpt>
      <trkpt lat="42.08184" lon="21.60132">
        <ele>593.863657</ele>
        <time>2022-04-13T10:02:41.283Z</time>
      </trkpt>
      <trkpt lat="42.08085" lon="21.59889">
        <ele>601.020033</ele>
        <time>2022-04-13T10:04:12.278Z</time>
      </trkpt>
      <trkpt lat="42.07911" lon="21.59753">
        <ele>599.138647</ele>
        <time>2022-04-13T10:05:19.320Z</time>
      </trkpt>
      <trkpt lat="42.07718" lon="21.59662">
        <ele>599.981008</ele>
        <time>2022-04-13T10:06:37.285Z</time>
      </trkpt>
      <trkpt lat="42.07498" lon="21.59682">
        <ele>601.289491</ele>
        <time>2022-04-13T10:07:38.279Z</time>
      </trkpt>
      <trkpt lat="42.07265" lon="21.59689">
        <ele>599.073358</ele>
        <time>2022-04-13T10:08:27.283Z</time>
      </trkpt>
      <trkpt lat="42.07057" lon="21.59656">
        <ele>595.95248</ele>
        <time>2022-04-13T10:09:15.284Z</time>
      </trkpt>
      <trkpt lat="42.06834" lon="21.59658">
        <ele>598.235215</ele>
        <time>2022-04-13T10:10:04.281Z</time>
      </trkpt>
      <trkpt lat="42.06588" lon="21.5967">
        <ele>592.832008</ele>
        <time>2022-04-13T10:10:46.282Z</time>
      </trkpt>
      <trkpt lat="42.06335" lon="21.59792">
        <ele>590.204661</ele>
        <time>2022-04-13T10:11:26.275Z</time>
      </trkpt>
      <trkpt lat="42.06102" lon="21.59912">
        <ele>583.492857</ele>
        <time>2022-04-13T10:12:06.284Z</time>
      </trkpt>
      <trkpt lat="42.05903" lon="21.60129">
        <ele>569.812747</ele>
        <time>2022-04-13T10:12:48.280Z</time>
      </trkpt>
      <trkpt lat="42.05621" lon="21.60116">
        <ele>553.001271</ele>
        <time>2022-04-13T10:13:28.288Z</time>
      </trkpt>
      <trkpt lat="42.05355" lon="21.60032">
        <ele>544.583616</ele>
        <time>2022-04-13T10:14:15.287Z</time>
      </trkpt>
      <trkpt lat="42.05051" lon="21.59895">
        <ele>525.862267</ele>
        <time>2022-04-13T10:14:57.286Z</time>
      </trkpt>
      <trkpt lat="42.04809" lon="21.59984">
        <ele>512.35044</ele>
        <time>2022-04-13T10:15:28.280Z</time>
      </trkpt>
      <trkpt lat="42.04525" lon="21.60048">
        <ele>494.894539</ele>
        <time>2022-04-13T10:16:03.286Z</time>
      </trkpt>
      <trkpt lat="42.042" lon="21.60058">
        <ele>477.507295</ele>
        <time>2022-04-13T10:16:45.283Z</time>
      </trkpt>
      <trkpt lat="42.0394" lon="21.59941">
        <ele>464.447685</ele>
        <time>2022-04-13T10:17:25.288Z</time>
      </trkpt>
      <trkpt lat="42.03737" lon="21.59706">
        <ele>454.167012</ele>
        <time>2022-04-13T10:17:59.277Z</time>
      </trkpt>
      <trkpt lat="42.03499" lon="21.59615">
        <ele>436.774642</ele>
        <time>2022-04-13T10:18:26.278Z</time>
      </trkpt>
      <trkpt lat="42.03201" lon="21.59475">
        <ele>411.424085</ele>
        <time>2022-04-13T10:19:06.303Z</time>
      </trkpt>
      <trkpt lat="42.03015" lon="21.59183">
        <ele>392.316866</ele>
        <time>2022-04-13T10:19:46.282Z</time>
      </trkpt>
      <trkpt lat="42.03002" lon="21.58853">
        <ele>378.134409</ele>
        <time>2022-04-13T10:20:25.311Z</time>
      </trkpt>
      <trkpt lat="42.02915" lon="21.58576">
        <ele>364.53401</ele>
        <time>2022-04-13T10:20:48.274Z</time>
      </trkpt>
      <trkpt lat="42.02799" lon="21.58337">
        <ele>362.694947</ele>
        <time>2022-04-13T10:21:32.276Z</time>
      </trkpt>
      <trkpt lat="42.02755" lon="21.58078">
        <ele>378.030766</ele>
        <time>2022-04-13T10:23:02.312Z</time>
      </trkpt>
      <trkpt lat="42.02778" lon="21.57785">
        <ele>395.473316</ele>
        <time>2022-04-13T10:24:18.283Z</time>
      </trkpt>
      <trkpt lat="42.02758" lon="21.57471">
        <ele>389.80081</ele>
        <time>2022-04-13T10:25:00.286Z</time>
      </trkpt>
      <trkpt lat="42.02738" lon="21.57148">
        <ele>376.253291</ele>
        <time>2022-04-13T10:25:49.308Z</time>
      </trkpt>
      <trkpt lat="42.0272" lon="21.56748">
        <ele>356.973996</ele>
        <time>2022-04-13T10:26:31.321Z</time>
      </trkpt>
      <trkpt lat="42.02708" lon="21.56422">
        <ele>337.037436</ele>
        <time>2022-04-13T10:27:12.291Z</time>
      </trkpt>
      <trkpt lat="42.02624" lon="21.56089">
        <ele>317.256166</ele>
        <time>2022-04-13T10:27:56.304Z</time>
      </trkpt>
      <trkpt lat="42.02513" lon="21.55698">
        <ele>289.794537</ele>
        <time>2022-04-13T10:28:37.296Z</time>
      </trkpt>
      <trkpt lat="42.02426" lon="21.55397">
        <ele>279.507735</ele>
        <time>2022-04-13T10:29:24.316Z</time>
      </trkpt>
      <trkpt lat="42.02347" lon="21.55124">
        <ele>278.359549</ele>
        <time>2022-04-13T10:30:06.299Z</time>
      </trkpt>
      <trkpt lat="42.02265" lon="21.54846">
        <ele>274.805624</ele>
        <time>2022-04-13T10:30:56.317Z</time>
      </trkpt>
      <trkpt lat="42.02194" lon="21.54604">
        <ele>272.886038</ele>
        <time>2022-04-13T10:31:37.298Z</time>
      </trkpt>
      <trkpt lat="42.02121" lon="21.5435">
        <ele>272.501481</ele>
        <time>2022-04-13T10:32:19.298Z</time>
      </trkpt>
      <trkpt lat="42.02047" lon="21.54094">
        <ele>272.148039</ele>
        <time>2022-04-13T10:33:01.320Z</time>
      </trkpt>
      <trkpt lat="42.01975" lon="21.53848">
        <ele>272.253077</ele>
        <time>2022-04-13T10:33:41.305Z</time>
      </trkpt>
      <trkpt lat="42.019" lon="21.5359">
        <ele>273.917632</ele>
        <time>2022-04-13T10:34:29.313Z</time>
      </trkpt>
      <trkpt lat="42.01825" lon="21.53328">
        <ele>277.924078</ele>
        <time>2022-04-13T10:35:41.307Z</time>
      </trkpt>
      <trkpt lat="42.01727" lon="21.53008">
        <ele>277.108962</ele>
        <time>2022-04-13T10:36:28.300Z</time>
      </trkpt>
      <trkpt lat="42.01641" lon="21.52715">
        <ele>280.20653</ele>
        <time>2022-04-13T10:37:22.314Z</time>
      </trkpt>
      <trkpt lat="42.01558" lon="21.52431">
        <ele>284.39205</ele>
        <time>2022-04-13T10:38:19.292Z</time>
      </trkpt>
      <trkpt lat="42.01472" lon="21.52142">
        <ele>290.075751</ele>
        <time>2022-04-13T10:39:23.317Z</time>
      </trkpt>
      <trkpt lat="42.0139" lon="21.51861">
        <ele>295.851496</ele>
        <time>2022-04-13T10:40:17.284Z</time>
      </trkpt>
      <trkpt lat="42.01306" lon="21.51567">
        <ele>291.840466</ele>
        <time>2022-04-13T10:41:11.281Z</time>
      </trkpt>
      <trkpt lat="42.01221" lon="21.51253">
        <ele>288.619142</ele>
        <time>2022-04-13T10:42:14.296Z</time>
      </trkpt>
      <trkpt lat="42.01134" lon="21.50976">
        <ele>292.316733</ele>
        <time>2022-04-13T10:43:17.268Z</time>
      </trkpt>
      <trkpt lat="42.00955" lon="21.50843">
        <ele>297.378615</ele>
        <time>2022-04-13T10:44:27.275Z</time>
      </trkpt>
      <trkpt lat="42.00757" lon="21.50586">
        <ele>284.162451</ele>
        <time>2022-04-13T10:45:09.286Z</time>
      </trkpt>
      <trkpt lat="42.00639" lon="21.50346">
        <ele>282.096047</ele>
        <time>2022-04-13T10:45:56.278Z</time>
      </trkpt>
      <trkpt lat="42.006" lon="21.50342">
        <ele>290.479648</ele>
        <time>2022-04-13T10:47:00.268Z</time>
      </trkpt>
      <trkpt lat="42.00365" lon="21.50393">
        <ele>287.878525</ele>
        <time>2022-04-13T10:47:59.307Z</time>
      </trkpt>
      <trkpt lat="42.00176" lon="21.50255">
        <ele>281.875284</ele>
        <time>2022-04-13T10:48:47.303Z</time>
      </trkpt>
      <trkpt lat="41.99991" lon="21.50137">
        <ele>283.425758</ele>
        <time>2022-04-13T10:49:43.299Z</time>
      </trkpt>
      <trkpt lat="41.99778" lon="21.50021">
        <ele>282.800731</ele>
        <time>2022-04-13T10:50:46.313Z</time>
      </trkpt>
      <trkpt lat="41.99564" lon="21.49902">
        <ele>283.464757</ele>
        <time>2022-04-13T10:51:55.301Z</time>
      </trkpt>
      <trkpt lat="41.99514" lon="21.49695">
        <ele>284.081938</ele>
        <time>2022-04-13T10:52:57.305Z</time>
      </trkpt>
      <trkpt lat="41.99605" lon="21.49412">
        <ele>283.884329</ele>
        <time>2022-04-13T10:54:01.309Z</time>
      </trkpt>
      <trkpt lat="41.99544" lon="21.49248">
        <ele>286.09223</ele>
        <time>2022-04-13T10:55:09.285Z</time>
      </trkpt>
      <trkpt lat="41.99329" lon="21.49173">
        <ele>288.290354</ele>
        <time>2022-04-13T10:56:00.296Z</time>
      </trkpt>
      <trkpt lat="41.99171" lon="21.48974">
        <ele>284.019936</ele>
        <time>2022-04-13T10:57:03.288Z</time>
      </trkpt>
      <trkpt lat="41.99079" lon="21.48878">
        <ele>289.261602</ele>
        <time>2022-04-13T11:00:05.285Z</time>
      </trkpt>
      <trkpt lat="41.99241" lon="21.49047">
        <ele>292.938688</ele>
        <time>2022-04-13T11:05:24.271Z</time>
      </trkpt>
      <trkpt lat="41.99397" lon="21.49219">
        <ele>289.791815</ele>
        <time>2022-04-13T11:06:29.322Z</time>
      </trkpt>
      <trkpt lat="41.99629" lon="21.49262">
        <ele>291.284787</ele>
        <time>2022-04-13T11:07:36.302Z</time>
      </trkpt>
      <trkpt lat="41.99641" lon="21.48954">
        <ele>292.872667</ele>
        <time>2022-04-13T11:08:36.300Z</time>
      </trkpt>
      <trkpt lat="41.9973" lon="21.48711">
        <ele>295.374452</ele>
        <time>2022-04-13T11:09:39.301Z</time>
      </trkpt>
      <trkpt lat="41.99715" lon="21.48416">
        <ele>302.687432</ele>
        <time>2022-04-13T11:10:30.317Z</time>
      </trkpt>
      <trkpt lat="41.99696" lon="21.48122">
        <ele>300.988739</ele>
        <time>2022-04-13T11:11:22.299Z</time>
      </trkpt>
      <trkpt lat="41.99684" lon="21.4781">
        <ele>296.631106</ele>
        <time>2022-04-13T11:12:17.295Z</time>
      </trkpt>
      <trkpt lat="41.99598" lon="21.47578">
        <ele>290.278719</ele>
        <time>2022-04-13T11:13:45.289Z</time>
      </trkpt>
      <trkpt lat="41.99372" lon="21.47521">
        <ele>284.542378</ele>
        <time>2022-04-13T11:14:39.291Z</time>
      </trkpt>
      <trkpt lat="41.99162" lon="21.47443">
        <ele>287.492281</ele>
        <time>2022-04-13T11:16:46.336Z</time>
      </trkpt>
      <trkpt lat="41.99235" lon="21.4719">
        <ele>284.267896</ele>
        <time>2022-04-13T11:18:05.283Z</time>
      </trkpt>
      <trkpt lat="41.99376" lon="21.46924">
        <ele>285.782325</ele>
        <time>2022-04-13T11:19:00.278Z</time>
      </trkpt>
      <trkpt lat="41.99492" lon="21.46674">
        <ele>285.557722</ele>
        <time>2022-04-13T11:19:48.296Z</time>
      </trkpt>
      <trkpt lat="41.99512" lon="21.46395">
        <ele>287.001172</ele>
        <time>2022-04-13T11:20:38.282Z</time>
      </trkpt>
      <trkpt lat="41.99453" lon="21.46165">
        <ele>291.650248</ele>
        <time>2022-04-13T11:22:42.316Z</time>
      </trkpt>
      <trkpt lat="41.99293" lon="21.46326">
        <ele>292.545636</ele>
        <time>2022-04-13T11:23:49.293Z</time>
      </trkpt>
      <trkpt lat="41.99281" lon="21.46407">
        <ele>290.536817</ele>
        <time>2022-04-13T11:24:39.298Z</time>
      </trkpt>
      <trkpt lat="41.994" lon="21.46307">
        <ele>294.885482</ele>
        <time>2022-04-13T11:25:58.291Z</time>
      </trkpt>
      <trkpt lat="41.99387" lon="21.46313">
        <ele>293.350074</ele>
        <time>2022-04-13T11:27:26.282Z</time>
      </trkpt>
      <trkpt lat="41.99297" lon="21.46129">
        <ele>290.346271</ele>
        <time>2022-04-13T11:29:40.302Z</time>
      </trkpt>
      <trkpt lat="41.99091" lon="21.4592">
        <ele>287.606506</ele>
        <time>2022-04-13T11:30:42.275Z</time>
      </trkpt>
      <trkpt lat="41.99029" lon="21.45605">
        <ele>291.227926</ele>
        <time>2022-04-13T11:31:40.281Z</time>
      </trkpt>
      <trkpt lat="41.99127" lon="21.45346">
        <ele>292.952004</ele>
        <time>2022-04-13T11:32:27.302Z</time>
      </trkpt>
      <trkpt lat="41.99261" lon="21.45132">
        <ele>292.487285</ele>
        <time>2022-04-13T11:33:09.273Z</time>
      </trkpt>
      <trkpt lat="41.99438" lon="21.44944">
        <ele>295.434574</ele>
        <time>2022-04-13T11:34:01.315Z</time>
      </trkpt>
      <trkpt lat="41.99543" lon="21.44706">
        <ele>303.094347</ele>
        <time>2022-04-13T11:34:46.276Z</time>
      </trkpt>
      <trkpt lat="41.99537" lon="21.44405">
        <ele>300.694293</ele>
        <time>2022-04-13T11:35:28.265Z</time>
      </trkpt>
      <trkpt lat="41.99474" lon="21.44132">
        <ele>298.296206</ele>
        <time>2022-04-13T11:36:08.272Z</time>
      </trkpt>
      <trkpt lat="41.9947" lon="21.43843">
        <ele>300.567804</ele>
        <time>2022-04-13T11:36:55.272Z</time>
      </trkpt>
      <trkpt lat="41.99398" lon="21.43625">
        <ele>307.713248</ele>
        <time>2022-04-13T11:38:04.276Z</time>
      </trkpt>
      <trkpt lat="41.99298" lon="21.43359">
        <ele>310.675085</ele>
        <time>2022-04-13T11:38:52.264Z</time>
      </trkpt>
      <trkpt lat="41.99451" lon="21.4316">
        <ele>304.744297</ele>
        <time>2022-04-13T11:39:58.304Z</time>
      </trkpt>
      <trkpt lat="41.99506" lon="21.42854">
        <ele>309.82508</ele>
        <time>2022-04-13T11:40:48.287Z</time>
      </trkpt>
      <trkpt lat="41.9956" lon="21.42595">
        <ele>305.467565</ele>
        <time>2022-04-13T11:56:00.254Z</time>
      </trkpt>
      <trkpt lat="41.99594" lon="21.42577">
        <ele>305.467565</ele>
        <time>2022-04-13T12:01:36.321Z</time>
      </trkpt>
    </trkseg>
  </trk>
</gpx>